Terminal Aerodrome Forecast
Issued by NWS

Home | Current Version | Previous Version | Text Only | Print | Product List | Glossary On
Versions: 1 2 3 4 5 6 7 8 9 10 11 12 13 14 15 16 17 18 19 20 21 22 23 24 25 26
000
FTUS44 KHGX 210113 AAA
TAFUTS
TAF AMD
KUTS 210113Z 2101/2124 00000KT P6SM VCSH SCT070 SCT100
      TEMPO 2102/2105 5SM -SHRA BR BKN045 OVC100
     FM210500 VRB03KT 6SM BR VCSH BKN007 OVC030
     FM210700 18003KT 3SM BR OVC005
     FM211200 21003KT 1SM BR OVC004
     FM211500 23005KT 4SM BR BKN010 OVC015
     FM211700 24008G14KT P6SM SCT030 SCT150=

USA.gov is the U.S. government's official web portal to all federal, state and local government web resources and services.